LAN7352 SULS-SABE
Flight info
| Callsign | LAN7352 |
|---|---|
| Flight time | 0h 37m |
| Altitude | 24000 |
| Route | DCT LDS A306 UGIMI UGIM8R |
| Aircraft | A320/M-SDFGHIRWY/LB1 |
Departure
| Time | 2026-05-08 01:58 |
|---|---|
| Airport | Capitan Corbeta CA Curbelo International Airport (SULS) |
Arrival
| Time | 2026-05-08 02:35 |
|---|---|
| Airport | Aeroparque Jorge Newbery (SABE) |
| Time | Latitude | Longitude | Altitude | Speed | Heading |
|---|---|---|---|---|---|
| 2026-05-08 01:22 | -34.85949 | -55.09852 | 101 ft | 0 kts | 162° |
| 2026-05-08 01:53 | -34.85950 | -55.09851 | 100 ft | 1 kts | 162° |
| 2026-05-08 01:53 | -34.85968 | -55.09844 | 100 ft | 3 kts | 162° |
| 2026-05-08 01:53 | -34.85981 | -55.09813 | 100 ft | 5 kts | 84° |
| 2026-05-08 01:54 | -34.85947 | -55.09802 | 100 ft | 7 kts | 346° |
| 2026-05-08 01:54 | -34.85893 | -55.09823 | 100 ft | 9 kts | 342° |
| 2026-05-08 01:54 | -34.85822 | -55.09851 | 100 ft | 12 kts | 342° |
| 2026-05-08 01:54 | -34.85735 | -55.09884 | 101 ft | 14 kts | 342° |
| 2026-05-08 01:55 | -34.85644 | -55.09888 | 102 ft | 14 kts | 48° |
| 2026-05-08 01:55 | -34.85606 | -55.09769 | 101 ft | 16 kts | 72° |
| 2026-05-08 01:55 | -34.85570 | -55.09637 | 103 ft | 18 kts | 72° |
| 2026-05-08 01:55 | -34.85529 | -55.09483 | 102 ft | 20 kts | 72° |
| 2026-05-08 01:56 | -34.85484 | -55.09313 | 103 ft | 22 kts | 71° |
| 2026-05-08 01:56 | -34.85429 | -55.09119 | 99 ft | 26 kts | 70° |
| 2026-05-08 01:56 | -34.85439 | -55.09015 | 100 ft | 7 kts | 85° |
| 2026-05-08 01:56 | -34.85427 | -55.09001 | 100 ft | 2 kts | 28° |
| 2026-05-08 01:57 | -34.85408 | -55.09010 | 102 ft | 4 kts | 305° |
| 2026-05-08 01:57 | -34.85420 | -55.09076 | 101 ft | 18 kts | 253° |
| 2026-05-08 01:57 | -34.85528 | -55.09483 | 102 ft | 84 kts | 251° |
| 2026-05-08 01:57 | -34.85768 | -55.10370 | 100 ft | 134 kts | 252° |
| 2026-05-08 01:58 | -34.86075 | -55.11522 | 494 ft | 139 kts | 255° |
| 2026-05-08 01:58 | -34.86361 | -55.12579 | 1318 ft | 124 kts | 257° |
| 2026-05-08 01:58 | -34.86613 | -55.13596 | 1761 ft | 136 kts | 255° |
| 2026-05-08 01:58 | -34.86932 | -55.14831 | 1889 ft | 170 kts | 254° |
| 2026-05-08 01:59 | -34.87315 | -55.16347 | 2073 ft | 206 kts | 255° |
| 2026-05-08 01:59 | -34.87769 | -55.18123 | 2550 ft | 230 kts | 253° |
| 2026-05-08 01:59 | -34.88263 | -55.20014 | 3446 ft | 237 kts | 252° |
| 2026-05-08 01:59 | -34.88769 | -55.21943 | 4405 ft | 241 kts | 252° |
| 2026-05-08 02:00 | -34.89279 | -55.23890 | 5243 ft | 249 kts | 253° |
| 2026-05-08 02:00 | -34.89636 | -55.25979 | 6046 ft | 254 kts | 268° |
| 2026-05-08 02:00 | -34.89766 | -55.28130 | 6948 ft | 258 kts | 267° |
| 2026-05-08 02:00 | -34.89900 | -55.30335 | 7760 ft | 262 kts | 268° |
| 2026-05-08 02:01 | -34.90034 | -55.32594 | 8460 ft | 272 kts | 268° |
| 2026-05-08 02:01 | -34.90186 | -55.34918 | 9263 ft | 277 kts | 270° |
| 2026-05-08 02:01 | -34.90349 | -55.37307 | 9824 ft | 292 kts | 271° |
| 2026-05-08 02:01 | -34.90501 | -55.39869 | 10084 ft | 314 kts | 270° |
| 2026-05-08 02:02 | -34.90654 | -55.42587 | 10595 ft | 326 kts | 269° |
| 2026-05-08 02:02 | -34.90811 | -55.45376 | 11199 ft | 333 kts | 271° |
| 2026-05-08 02:02 | -34.90974 | -55.48201 | 11918 ft | 338 kts | 268° |
| 2026-05-08 02:02 | -34.91140 | -55.51076 | 12622 ft | 342 kts | 268° |
| 2026-05-08 02:03 | -34.91307 | -55.53941 | 13421 ft | 343 kts | 269° |
| 2026-05-08 02:03 | -34.91477 | -55.56851 | 14093 ft | 346 kts | 270° |
| 2026-05-08 02:03 | -34.91649 | -55.59784 | 14736 ft | 349 kts | 270° |
| 2026-05-08 02:03 | -34.91820 | -55.62736 | 15395 ft | 351 kts | 271° |
| 2026-05-08 02:04 | -34.91988 | -55.65711 | 16057 ft | 353 kts | 272° |
| 2026-05-08 02:04 | -34.92152 | -55.68704 | 16727 ft | 355 kts | 273° |
| 2026-05-08 02:04 | -34.92317 | -55.71723 | 17409 ft | 357 kts | 273° |
| 2026-05-08 02:04 | -34.92483 | -55.74748 | 18058 ft | 360 kts | 274° |
| 2026-05-08 02:05 | -34.92652 | -55.77807 | 18663 ft | 362 kts | 274° |
| 2026-05-08 02:05 | -34.92821 | -55.80879 | 19309 ft | 364 kts | 274° |
| 2026-05-08 02:05 | -34.92989 | -55.83968 | 19953 ft | 366 kts | 275° |
| 2026-05-08 02:05 | -34.93159 | -55.87071 | 20590 ft | 368 kts | 275° |
| 2026-05-08 02:06 | -34.93330 | -55.90185 | 21218 ft | 369 kts | 276° |
| 2026-05-08 02:06 | -34.93505 | -55.93315 | 21831 ft | 371 kts | 276° |
| 2026-05-08 02:06 | -34.93679 | -55.96459 | 22440 ft | 373 kts | 276° |
| 2026-05-08 02:06 | -34.93849 | -55.99617 | 23019 ft | 374 kts | 277° |
| 2026-05-08 02:07 | -34.94014 | -56.02790 | 23439 ft | 376 kts | 277° |
| 2026-05-08 02:07 | -34.94184 | -56.05974 | 23555 ft | 376 kts | 277° |
| 2026-05-08 02:07 | -34.94356 | -56.09125 | 23589 ft | 371 kts | 277° |
| 2026-05-08 02:07 | -34.94525 | -56.12251 | 23588 ft | 369 kts | 277° |
| 2026-05-08 02:08 | -34.94688 | -56.15368 | 23589 ft | 368 kts | 278° |
| 2026-05-08 02:08 | -34.94845 | -56.18482 | 23589 ft | 368 kts | 278° |
| 2026-05-08 02:08 | -34.95001 | -56.21561 | 23588 ft | 368 kts | 278° |
| 2026-05-08 02:08 | -34.95159 | -56.24676 | 23579 ft | 368 kts | 278° |
| 2026-05-08 02:09 | -34.95314 | -56.27789 | 23575 ft | 368 kts | 278° |
| 2026-05-08 02:09 | -34.95471 | -56.30904 | 23608 ft | 368 kts | 278° |
| 2026-05-08 02:09 | -34.95630 | -56.34028 | 23587 ft | 371 kts | 278° |
| 2026-05-08 02:09 | -34.95792 | -56.37167 | 23589 ft | 371 kts | 278° |
| 2026-05-08 02:10 | -34.95956 | -56.40316 | 23589 ft | 372 kts | 278° |
| 2026-05-08 02:10 | -34.96117 | -56.43460 | 23584 ft | 372 kts | 278° |
| 2026-05-08 02:10 | -34.96274 | -56.46611 | 23591 ft | 372 kts | 278° |
| 2026-05-08 02:10 | -34.96427 | -56.49748 | 23592 ft | 372 kts | 278° |
| 2026-05-08 02:11 | -34.96579 | -56.52893 | 23593 ft | 372 kts | 278° |
| 2026-05-08 02:11 | -34.96734 | -56.56038 | 23593 ft | 372 kts | 278° |
| 2026-05-08 02:11 | -34.96889 | -56.59185 | 23620 ft | 372 kts | 278° |
| 2026-05-08 02:11 | -34.97045 | -56.62341 | 23601 ft | 373 kts | 278° |
| 2026-05-08 02:12 | -34.97200 | -56.65502 | 23597 ft | 374 kts | 278° |
| 2026-05-08 02:12 | -34.97349 | -56.68626 | 23591 ft | 374 kts | 278° |
| 2026-05-08 02:12 | -34.97500 | -56.71798 | 23588 ft | 375 kts | 278° |
| 2026-05-08 02:12 | -34.97652 | -56.74969 | 23589 ft | 375 kts | 278° |
| 2026-05-08 02:13 | -34.97803 | -56.78144 | 23592 ft | 375 kts | 278° |
| 2026-05-08 02:13 | -34.97952 | -56.81305 | 23500 ft | 372 kts | 278° |
| 2026-05-08 02:13 | -34.98105 | -56.84425 | 23310 ft | 364 kts | 278° |
| 2026-05-08 02:13 | -34.98254 | -56.87484 | 23067 ft | 360 kts | 278° |
| 2026-05-08 02:14 | -34.98356 | -56.90517 | 22805 ft | 354 kts | 280° |
| 2026-05-08 02:14 | -34.98378 | -56.93487 | 22420 ft | 347 kts | 281° |
| 2026-05-08 02:14 | -34.98355 | -56.96411 | 22022 ft | 342 kts | 282° |
| 2026-05-08 02:14 | -34.98315 | -56.99297 | 21620 ft | 338 kts | 282° |
| 2026-05-08 02:15 | -34.98274 | -57.02152 | 21209 ft | 335 kts | 281° |
| 2026-05-08 02:15 | -34.98238 | -57.04974 | 20807 ft | 332 kts | 281° |
| 2026-05-08 02:15 | -34.98214 | -57.07786 | 20400 ft | 330 kts | 281° |
| 2026-05-08 02:15 | -34.98198 | -57.10568 | 19997 ft | 328 kts | 280° |
| 2026-05-08 02:16 | -34.98187 | -57.13347 | 19605 ft | 327 kts | 278° |
| 2026-05-08 02:16 | -34.98176 | -57.16114 | 19195 ft | 326 kts | 278° |
| 2026-05-08 02:16 | -34.98162 | -57.18872 | 18797 ft | 325 kts | 278° |
| 2026-05-08 02:16 | -34.98147 | -57.21590 | 18410 ft | 324 kts | 277° |
| 2026-05-08 02:17 | -34.98130 | -57.24330 | 18020 ft | 323 kts | 277° |
| 2026-05-08 02:17 | -34.98114 | -57.27064 | 17592 ft | 322 kts | 277° |
| 2026-05-08 02:17 | -34.98098 | -57.29783 | 17200 ft | 319 kts | 277° |
| 2026-05-08 02:17 | -34.98080 | -57.32486 | 16815 ft | 317 kts | 277° |
| 2026-05-08 02:18 | -34.98062 | -57.35166 | 16437 ft | 315 kts | 277° |
| 2026-05-08 02:18 | -34.98045 | -57.37818 | 16062 ft | 313 kts | 276° |
| 2026-05-08 02:18 | -34.98029 | -57.40463 | 15692 ft | 311 kts | 275° |
| 2026-05-08 02:18 | -34.98012 | -57.43096 | 15316 ft | 310 kts | 275° |
| 2026-05-08 02:19 | -34.97992 | -57.45680 | 16314 ft | 308 kts | 275° |
| 2026-05-08 02:19 | -34.97972 | -57.48284 | 16870 ft | 306 kts | 275° |
| 2026-05-08 02:19 | -34.97951 | -57.50866 | 16497 ft | 305 kts | 275° |
| 2026-05-08 02:19 | -34.97928 | -57.53448 | 16137 ft | 303 kts | 275° |
| 2026-05-08 02:20 | -34.97906 | -57.56011 | 15771 ft | 301 kts | 275° |
| 2026-05-08 02:20 | -34.97882 | -57.58565 | 15390 ft | 300 kts | 274° |
| 2026-05-08 02:20 | -34.97860 | -57.61093 | 15029 ft | 297 kts | 274° |
| 2026-05-08 02:20 | -34.97840 | -57.63598 | 14681 ft | 294 kts | 274° |
| 2026-05-08 02:21 | -34.97819 | -57.66051 | 14351 ft | 291 kts | 273° |
| 2026-05-08 02:21 | -34.97799 | -57.68511 | 13999 ft | 289 kts | 273° |
| 2026-05-08 02:21 | -34.97778 | -57.70945 | 13656 ft | 287 kts | 273° |
| 2026-05-08 02:21 | -34.97754 | -57.73371 | 13318 ft | 284 kts | 273° |
| 2026-05-08 02:22 | -34.97730 | -57.75773 | 12987 ft | 282 kts | 273° |
| 2026-05-08 02:22 | -34.97701 | -57.78157 | 12657 ft | 280 kts | 273° |
| 2026-05-08 02:22 | -34.97676 | -57.80519 | 12316 ft | 278 kts | 272° |
| 2026-05-08 02:22 | -34.97653 | -57.82861 | 12105 ft | 272 kts | 272° |
| 2026-05-08 02:23 | -34.97623 | -57.85167 | 12007 ft | 272 kts | 275° |
| 2026-05-08 02:23 | -34.97468 | -57.86671 | 11931 ft | 270 kts | 283° |
| 2026-05-08 02:23 | -34.96908 | -57.88848 | 11660 ft | 270 kts | 294° |
| 2026-05-08 02:23 | -34.95970 | -57.90834 | 11208 ft | 272 kts | 306° |
| 2026-05-08 02:24 | -34.94690 | -57.92545 | 10765 ft | 274 kts | 317° |
| 2026-05-08 02:24 | -34.93185 | -57.93983 | 10348 ft | 276 kts | 319° |
| 2026-05-08 02:24 | -34.91671 | -57.95412 | 9951 ft | 276 kts | 319° |
| 2026-05-08 02:24 | -34.90149 | -57.96852 | 9585 ft | 275 kts | 318° |
| 2026-05-08 02:25 | -34.88624 | -57.98290 | 9146 ft | 278 kts | 319° |
| 2026-05-08 02:25 | -34.87090 | -57.99733 | 8725 ft | 280 kts | 319° |
| 2026-05-08 02:25 | -34.85551 | -58.01184 | 8261 ft | 283 kts | 318° |
| 2026-05-08 02:25 | -34.84003 | -58.02645 | 7754 ft | 277 kts | 318° |
| 2026-05-08 02:26 | -34.82507 | -58.04052 | 7323 ft | 267 kts | 318° |
| 2026-05-08 02:26 | -34.81062 | -58.05413 | 6921 ft | 258 kts | 318° |
| 2026-05-08 02:26 | -34.79662 | -58.06735 | 6527 ft | 250 kts | 317° |
| 2026-05-08 02:26 | -34.78309 | -58.08012 | 6170 ft | 240 kts | 317° |
| 2026-05-08 02:27 | -34.77040 | -58.09201 | 6031 ft | 222 kts | 317° |
| 2026-05-08 02:27 | -34.75854 | -58.10311 | 5766 ft | 216 kts | 316° |
| 2026-05-08 02:27 | -34.74666 | -58.11431 | 5483 ft | 214 kts | 314° |
| 2026-05-08 02:27 | -34.73509 | -58.12517 | 5436 ft | 210 kts | 315° |
| 2026-05-08 02:28 | -34.72375 | -58.13580 | 3107 ft | 202 kts | 315° |
| 2026-05-08 02:28 | -34.71261 | -58.14626 | 3043 ft | 203 kts | 315° |
| 2026-05-08 02:28 | -34.70244 | -58.15812 | 2962 ft | 202 kts | 301° |
| 2026-05-08 02:28 | -34.69472 | -58.17182 | 2875 ft | 191 kts | 296° |
| 2026-05-08 02:29 | -34.68753 | -58.18476 | 2834 ft | 177 kts | 295° |
| 2026-05-08 02:29 | -34.68085 | -58.19668 | 2742 ft | 164 kts | 294° |
| 2026-05-08 02:29 | -34.67468 | -58.20773 | 2654 ft | 151 kts | 294° |
| 2026-05-08 02:29 | -34.66916 | -58.21761 | 2594 ft | 140 kts | 292° |
| 2026-05-08 02:30 | -34.66381 | -58.22728 | 2546 ft | 136 kts | 292° |
| 2026-05-08 02:30 | -34.65859 | -58.23675 | 2482 ft | 135 kts | 292° |
| 2026-05-08 02:30 | -34.65338 | -58.24622 | 2410 ft | 135 kts | 293° |
| 2026-05-08 02:30 | -34.64819 | -58.25565 | 2323 ft | 134 kts | 293° |
| 2026-05-08 02:31 | -34.64306 | -58.26494 | 2241 ft | 134 kts | 293° |
| 2026-05-08 02:31 | -34.63786 | -58.27433 | 2149 ft | 134 kts | 294° |
| 2026-05-08 02:31 | -34.63265 | -58.28372 | 2049 ft | 133 kts | 294° |
| 2026-05-08 02:31 | -34.62748 | -58.29304 | 1968 ft | 133 kts | 294° |
| 2026-05-08 02:32 | -34.62232 | -58.30238 | 1884 ft | 133 kts | 295° |
| 2026-05-08 02:32 | -34.61714 | -58.31173 | 1790 ft | 133 kts | 295° |
| 2026-05-08 02:32 | -34.61196 | -58.32107 | 1710 ft | 133 kts | 295° |
| 2026-05-08 02:32 | -34.60678 | -58.33040 | 1539 ft | 133 kts | 296° |
| 2026-05-08 02:33 | -34.60160 | -58.33970 | 1354 ft | 133 kts | 296° |
| 2026-05-08 02:33 | -34.59644 | -58.34897 | 1171 ft | 132 kts | 296° |
| 2026-05-08 02:33 | -34.59127 | -58.35824 | 989 ft | 133 kts | 297° |
| 2026-05-08 02:33 | -34.58599 | -58.36751 | 825 ft | 134 kts | 298° |
| 2026-05-08 02:34 | -34.58079 | -58.37675 | 667 ft | 131 kts | 296° |
| 2026-05-08 02:34 | -34.57580 | -58.38633 | 472 ft | 135 kts | 300° |
| 2026-05-08 02:34 | -34.57042 | -58.39571 | 290 ft | 135 kts | 301° |
| 2026-05-08 02:34 | -34.56513 | -58.40513 | 108 ft | 135 kts | 302° |
| 2026-05-08 02:35 | -34.56032 | -58.41389 | 28 ft | 106 kts | 304° |
| 2026-05-08 02:35 | -34.55717 | -58.41963 | 26 ft | 57 kts | 305° |
| 2026-05-08 02:35 | -34.55574 | -58.42205 | 27 ft | 23 kts | 305° |
| 2026-05-08 02:35 | -34.55488 | -58.42358 | 27 ft | 21 kts | 303° |
| 2026-05-08 02:36 | -34.55409 | -58.42497 | 28 ft | 14 kts | 320° |
| 2026-05-08 02:36 | -34.55374 | -58.42494 | 25 ft | 3 kts | 52° |
| 2026-05-08 02:36 | -34.55365 | -58.42420 | 25 ft | 18 kts | 97° |
| 2026-05-08 02:36 | -34.55422 | -58.42290 | 27 ft | 17 kts | 126° |
| 2026-05-08 02:37 | -34.55487 | -58.42186 | 27 ft | 14 kts | 126° |
| 2026-05-08 02:37 | -34.55544 | -58.42097 | 28 ft | 13 kts | 128° |
| 2026-05-08 02:37 | -34.55593 | -58.42011 | 27 ft | 14 kts | 123° |
| 2026-05-08 02:37 | -34.55655 | -58.41899 | 30 ft | 18 kts | 124° |
| 2026-05-08 02:38 | -34.55732 | -58.41760 | 25 ft | 21 kts | 121° |
| 2026-05-08 02:38 | -34.55784 | -58.41609 | 25 ft | 14 kts | 89° |
| 2026-05-08 02:38 | -34.55769 | -58.41584 | 25 ft | 3 kts | 32° |
| 2026-05-08 02:38 | -34.55739 | -58.41559 | 25 ft | 7 kts | 39° |
| 2026-05-08 02:39 | -34.55712 | -58.41500 | 27 ft | 7 kts | 48° |
| 2026-05-08 02:39 | -34.55686 | -58.41489 | 28 ft | 0 kts | 18° |
| 2026-05-08 02:39 | -34.55685 | -58.41489 | 28 ft | 1 kts | 18° |
| 2026-05-08 02:40 | -34.55680 | -58.41487 | 28 ft | 0 kts | 16° |